Maple Hill, Minnesota
Current Conditions -  °F | °C
As of 5:33 AM on Saturday 25 Oct 2014 (Local Time) from KCKC Reporting Station
Clear Clear  
Wind Chill: 40°   Ceiling: Unl
Heat Index: 46°   Visibility: 10mi
Dew Point: 30°   Wind: 14mph
Humidity: 53%   Direction: 280°W
Pressure: 29.7"   Gusts: 26mph
Location:  47.8874°N, 90.328°W
Report Text: KCKC 251033Z AUTO 28012G23KT 239V299 10SM CLR 08/M01 A2970 RMK AO2
Loading
Personal Weather Stations






























Interactive Weather Map
Tropical Storm Tracking
New forecast layout! Learn more

10-Day Weather Forecast

Advertisements
Track Severe Weather on mobile